Time;durP1;ratioP1;P1;durP2;ratioP2;P2;SDS_P1;SDS_P2;PMS_P1;PMS_P2;Temp;Humidity;BMP_temperature;BMP_pressure;BME280_temperature;BME280_humidity;BME280_pressure;Samples;Min_cycle;Max_cycle;Signal;HPM_P1;HPM_P2
2023/05/17 00:02:12;;;;;;;;;;;;;;;7.90;100.00;98063.19;18573292;32;19989;-59
2023/05/17 00:12:15;;;;;;;;;;;;;;;7.90;100.00;98064.00;18572593;32;20362;-59
2023/05/17 00:22:18;;;;;;;;;;;;;;;7.90;100.00;98068.56;18571790;32;19953;-59
2023/05/17 00:32:22;;;;;;;;;;;;;;;7.90;100.00;98073.97;18571632;32;20000;-59
2023/05/17 00:42:25;;;;;;;;;;;;;;;7.92;100.00;98077.22;18570491;32;19953;-59
2023/05/17 00:52:28;;;;;;;;;;;;;;;7.91;100.00;98075.59;18569899;32;20284;-59
2023/05/17 01:02:30;;;;;;;;;;;;;;;7.92;100.00;98077.22;18555130;32;20282;-59
2023/05/17 01:12:45;;;;;;;;;;;;;;;7.79;100.00;98068.38;18568291;31;19994;-59
2023/05/17 01:22:52;;;;;;;;;;;;;;;7.70;100.00;98074.41;18568443;32;19975;-59
2023/05/17 01:32:57;;;;;;;;;;;;;;;7.62;100.00;98081.81;18553365;32;20000;-59
2023/05/17 01:43:16;;;;;;;;;;;;;;;7.55;100.00;98083.00;18566912;32;19968;-58
2023/05/17 01:53:25;;;;;;;;;;;;;;;7.50;100.00;98096.37;18566526;32;20418;-59
2023/05/17 02:03:28;;;;;;;;;;;;;;;7.42;100.00;98097.56;18565767;31;19971;-59
2023/05/17 02:13:31;;;;;;;;;;;;;;;7.28;100.00;98094.34;18565566;32;19983;-59
2023/05/17 02:23:34;;;;;;;;;;;;;;;7.15;100.00;98084.62;18563934;32;19996;-59
2023/05/17 02:33:37;;;;;;;;;;;;;;;7.08;100.00;98089.34;18563687;32;20016;-59
2023/05/17 02:43:40;;;;;;;;;;;;;;;7.07;100.00;98093.06;18548837;32;19956;-59
2023/05/17 02:53:43;;;;;;;;;;;;;;;7.07;100.00;98082.31;18548321;32;19990;-59
2023/05/17 03:03:46;;;;;;;;;;;;;;;7.05;100.00;98090.63;18561921;32;20278;-59
2023/05/17 03:13:51;;;;;;;;;;;;;;;7.02;100.00;98091.09;18561846;32;20280;-59
2023/05/17 03:23:53;;;;;;;;;;;;;;;7.01;100.00;98100.22;18561292;32;19988;-59
2023/05/17 03:33:56;;;;;;;;;;;;;;;6.86;100.00;98094.53;18560886;32;19986;-58
2023/05/17 03:43:59;;;;;;;;;;;;;;;6.71;100.00;98098.50;18560605;32;19957;-59
2023/05/17 03:54:02;;;;;;;;;;;;;;;6.57;100.00;98099.78;18560315;32;19992;-59
2023/05/17 04:04:06;;;;;;;;;;;;;;;6.41;100.00;98103.97;18560428;32;19972;-57
2023/05/17 04:14:09;;;;;;;;;;;;;;;6.28;100.00;98116.56;18545875;32;20020;-57
2023/05/17 04:24:12;;;;;;;;;;;;;;;6.28;100.00;98126.50;18545106;32;19953;-58
2023/05/17 04:34:15;;;;;;;;;;;;;;;6.44;100.00;98149.16;18559317;32;20388;-58
2023/05/17 04:44:18;;;;;;;;;;;;;;;6.56;100.00;98135.75;18566000;32;20016;-58
2023/05/17 04:54:21;;;;;;;;;;;;;;;6.66;100.00;98152.12;18570221;32;19957;-58
2023/05/17 05:04:26;;;;;;;;;;;;;;;6.74;100.00;98154.47;18569591;32;20257;-58
2023/05/17 05:14:28;;;;;;;;;;;;;;;6.94;100.00;98159.50;18554643;32;19949;-58
2023/05/17 05:24:31;;;;;;;;;;;;;;;7.07;100.00;98169.22;18568294;32;19967;-58
2023/05/17 05:34:34;;;;;;;;;;;;;;;7.35;100.00;98181.09;18553541;32;20352;-59
2023/05/17 05:44:40;;;;;;;;;;;;;;;7.73;100.00;98192.34;18566785;32;19956;-58
2023/05/17 05:54:45;;;;;;;;;;;;;;;8.27;100.00;98203.63;18566324;32;19960;-58
2023/05/17 06:04:52;;;;;;;;;;;;;;;8.59;100.00;98196.91;18565900;32;19994;-59
2023/05/17 06:14:56;;;;;;;;;;;;;;;8.88;100.00;98204.94;18565106;32;20302;-59
2023/05/17 06:24:59;;;;;;;;;;;;;;;9.33;100.00;98214.78;18564543;32;20001;-57
2023/05/17 06:35:03;;;;;;;;;;;;;;;9.72;100.00;98219.38;18563777;31;19967;-58
2023/05/17 06:45:07;;;;;;;;;;;;;;;9.98;100.00;98226.69;18549155;32;20323;-59
2023/05/17 07:06:12;;;;;;;;;;;;;;;10.45;100.00;98225.31;18094906;32;19974;-59
2023/05/17 07:16:16;;;;;;;;;;;;;;;10.67;100.00;98232.56;18107308;32;19985;-59
2023/05/17 07:26:20;;;;;;;;;;;;;;;11.01;100.00;98243.13;18107105;32;19963;-59
2023/05/17 07:36:26;;;;;;;;;;;;;;;11.36;100.00;98239.06;18237348;32;20372;-59
2023/05/17 07:46:29;;;;;;;;;;;;;;;11.70;100.00;98233.28;18560846;32;19971;-59
2023/05/17 07:56:38;;;;;;;;;;;;;;;12.30;95.89;98246.56;18547178;32;19979;-59
2023/05/17 08:06:47;;;;;;;;;;;;;;;12.54;100.00;98246.88;18560317;32;20377;-59
2023/05/17 08:16:50;;;;;;;;;;;;;;;13.14;99.47;98249.09;18564679;32;19957;-59
2023/05/17 08:26:55;;;;;;;;;;;;;;;13.68;93.73;98248.47;18571791;31;20333;-59
2023/05/17 08:36:59;;;;;;;;;;;;;;;14.01;85.33;98240.75;18570720;31;19975;-59
2023/05/17 08:47:02;;;;;;;;;;;;;;;14.17;80.96;98252.41;18570731;32;20370;-58
2023/05/17 08:57:06;;;;;;;;;;;;;;;13.73;76.77;98253.06;18570049;32;20386;-59
2023/05/17 09:07:10;;;;;;;;;;;;;;;13.83;80.61;98236.75;18569450;32;19952;-59
2023/05/17 09:17:13;;;;;;;;;;;;;;;14.36;76.83;98252.56;18554664;32;19971;-59
2023/05/17 09:27:17;;;;;;;;;;;;;;;13.99;74.35;98245.69;18567608;32;19960;-60
2023/05/17 09:37:20;;;;;;;;;;;;;;;13.82;81.15;98237.84;18567150;31;20029;-60
2023/05/17 09:47:23;;;;;;;;;;;;;;;14.15;70.20;98240.97;18567113;32;20314;-59
2023/05/17 09:57:27;;;;;;;;;;;;;;;14.46;67.58;98245.41;18552316;32;19957;-59
2023/05/17 10:07:32;;;;;;;;;;;;;;;14.37;74.47;98242.50;18565544;32;19949;-59
2023/05/17 10:17:40;;;;;;;;;;;;;;;14.07;69.54;98245.09;18564716;31;19971;-58
2023/05/17 10:27:51;;;;;;;;;;;;;;;13.74;79.99;98230.25;18564578;32;20038;-59
2023/05/17 10:37:54;;;;;;;;;;;;;;;14.39;77.21;98229.44;18548805;31;19960;-59
2023/05/17 10:48:00;;;;;;;;;;;;;;;14.73;70.70;98220.50;18563278;32;19952;-58
2023/05/17 10:58:08;;;;;;;;;;;;;;;14.42;61.83;98220.69;18562952;32;19969;-59
2023/05/17 11:08:13;;;;;;;;;;;;;;;14.56;62.20;98210.78;18562074;32;19991;-58
2023/05/17 11:18:16;;;;;;;;;;;;;;;15.02;62.10;98203.41;18562116;32;20379;-59
2023/05/17 11:28:35;;;;;;;;;;;;;;;15.13;61.29;98213.12;18561725;32;19997;-59
2023/05/17 11:38:49;;;;;;;;;;;;;;;14.98;61.71;98213.22;18560858;32;20273;-58
2023/05/17 11:49:10;;;;;;;;;;;;;;;15.41;59.20;98191.59;18551596;32;20348;-59
2023/05/17 11:59:25;;;;;;;;;;;;;;;16.13;54.14;98207.12;18559111;32;19992;-58
2023/05/17 12:09:29;;;;;;;;;;;;;;;16.63;59.21;98189.50;18572830;32;19957;-59
2023/05/17 12:19:32;;;;;;;;;;;;;;;17.48;51.61;98190.25;18557870;32;20344;-58
2023/05/17 12:29:35;;;;;;;;;;;;;;;17.60;51.96;98192.47;18571831;32;19985;-58
2023/05/17 12:39:39;;;;;;;;;;;;;;;18.19;56.93;98189.13;18543478;31;19944;-58
2023/05/17 12:49:54;;;;;;;;;;;;;;;17.04;52.57;98180.66;18570443;32;19991;-59
2023/05/17 13:00:00;;;;;;;;;;;;;;;16.56;57.15;98178.97;18554693;32;19997;-57
2023/05/17 13:10:21;;;;;;;;;;;;;;;16.14;56.04;98178.72;18569459;32;20372;-59
2023/05/17 13:20:24;;;;;;;;;;;;;;;17.05;53.58;98185.03;18568724;32;19961;-56
2023/05/17 13:30:27;;;;;;;;;;;;;;;16.89;53.69;98182.53;18567861;32;20265;-56
2023/05/17 13:40:30;;;;;;;;;;;;;;;16.92;55.29;98162.00;18567151;31;19960;-57
2023/05/17 13:50:34;;;;;;;;;;;;;;;17.40;52.63;98174.53;18566932;31;19975;-55
2023/05/17 14:00:41;;;;;;;;;;;;;;;17.98;55.18;98155.91;18552205;32;19975;-57
2023/05/17 14:10:44;;;;;;;;;;;;;;;17.89;49.64;98144.84;18565977;32;19964;-56
2023/05/17 14:20:48;;;;;;;;;;;;;;;16.77;58.41;98146.66;18551187;32;20016;-57
2023/05/17 14:30:52;;;;;;;;;;;;;;;16.76;54.43;98151.31;18549874;32;19964;-55
2023/05/17 14:40:55;;;;;;;;;;;;;;;17.35;49.13;98145.38;18549094;32;20011;-56
2023/05/17 14:50:58;;;;;;;;;;;;;;;16.39;50.84;98131.16;18563159;32;19953;-56
2023/05/17 15:01:02;;;;;;;;;;;;;;;16.46;55.47;98127.22;18562730;32;19948;-56
2023/05/17 15:11:09;;;;;;;;;;;;;;;16.16;55.74;98132.06;18562268;32;19979;-56
2023/05/17 15:21:16;;;;;;;;;;;;;;;16.18;53.66;98133.37;18562285;32;19979;-56
2023/05/17 15:31:19;;;;;;;;;;;;;;;15.39;57.11;98123.75;18547097;32;19971;-56
2023/05/17 15:41:26;;;;;;;;;;;;;;;15.35;57.40;98127.38;18560501;31;19971;-56
2023/05/17 15:51:32;;;;;;;;;;;;;;;15.21;56.43;98114.44;18560663;32;19998;-56
2023/05/17 16:01:35;;;;;;;;;;;;;;;14.93;62.70;98128.88;18533341;32;19987;-56
2023/05/17 16:11:39;;;;;;;;;;;;;;;15.01;62.86;98136.44;18560215;32;19999;-55
2023/05/17 16:21:43;;;;;;;;;;;;;;;14.54;64.01;98136.81;18545868;32;19960;-56
2023/05/17 16:31:46;;;;;;;;;;;;;;;14.60;65.36;98128.59;18559602;31;20308;-56
2023/05/17 16:41:51;;;;;;;;;;;;;;;14.58;64.84;98135.16;18568262;32;19970;-54
2023/05/17 16:51:54;;;;;;;;;;;;;;;14.28;63.52;98127.19;18556563;32;19979;-55
2023/05/17 17:01:57;;;;;;;;;;;;;;;14.06;66.87;98131.16;18555933;32;20074;-52
2023/05/17 17:12:00;;;;;;;;;;;;;;;13.80;72.34;98127.75;18554089;32;20392;-54
2023/05/17 17:22:18;;;;;;;;;;;;;;;13.78;68.33;98133.47;18568908;32;20033;-54
2023/05/17 17:32:20;;;;;;;;;;;;;;;13.74;69.23;98126.97;18554109;32;20265;-55
2023/05/17 17:42:23;;;;;;;;;;;;;;;13.53;79.11;98129.78;18553005;32;19964;-54
2023/05/17 17:52:27;;;;;;;;;;;;;;;13.28;76.50;98138.00;18552677;32;19960;-56
2023/05/17 18:02:30;;;;;;;;;;;;;;;13.09;83.14;98138.59;18551779;32;19979;-54
2023/05/17 18:12:33;;;;;;;;;;;;;;;13.06;75.62;98158.16;18565701;32;19961;-55
2023/05/17 18:22:37;;;;;;;;;;;;;;;12.98;72.04;98147.84;18564969;32;19949;-55
2023/05/17 18:32:40;;;;;;;;;;;;;;;12.79;74.96;98145.69;18564527;32;20384;-55
2023/05/17 18:42:44;;;;;;;;;;;;;;;12.53;79.58;98145.69;18563546;32;19972;-56
2023/05/17 18:52:47;;;;;;;;;;;;;;;12.50;73.22;98159.81;18563192;32;20270;-55
2023/05/17 19:02:49;;;;;;;;;;;;;;;12.14;83.08;98157.06;18562135;32;19949;-56
2023/05/17 19:12:53;;;;;;;;;;;;;;;11.92;85.12;98165.38;18562350;31;19983;-55
2023/05/17 19:22:57;;;;;;;;;;;;;;;11.73;83.12;98164.22;18561926;32;19961;-56
2023/05/17 19:33:02;;;;;;;;;;;;;;;11.52;84.63;98173.09;18561352;32;20007;-56
2023/05/17 19:43:07;;;;;;;;;;;;;;;11.21;88.55;98184.81;18560716;32;19983;-56
2023/05/17 19:53:10;;;;;;;;;;;;;;;10.64;100.00;98184.41;18560586;32;20253;-57
2023/05/17 20:03:14;;;;;;;;;;;;;;;10.18;100.00;98187.44;18560454;32;19949;-56
2023/05/17 20:13:21;;;;;;;;;;;;;;;9.81;100.00;98182.72;18566685;32;19999;-57
2023/05/17 20:23:24;;;;;;;;;;;;;;;9.63;100.00;98184.69;18572812;32;19960;-57
2023/05/17 20:33:27;;;;;;;;;;;;;;;9.67;100.00;98193.09;18571877;32;20056;-58
2023/05/17 20:43:33;;;;;;;;;;;;;;;9.50;100.00;98209.34;18556372;32;20260;-57
2023/05/17 20:53:37;;;;;;;;;;;;;;;9.26;100.00;98216.84;18571121;32;20064;-56
2023/05/17 21:03:41;;;;;;;;;;;;;;;8.94;100.00;98226.34;18570001;31;20009;-57
2023/05/17 21:13:44;;;;;;;;;;;;;;;8.63;100.00;98233.94;18569405;32;20317;-57
2023/05/17 21:23:48;;;;;;;;;;;;;;;8.30;100.00;98231.97;18568326;32;19956;-57
2023/05/17 21:33:51;;;;;;;;;;;;;;;7.97;100.00;98239.72;18567972;32;19979;-58
2023/05/17 21:43:55;;;;;;;;;;;;;;;7.72;100.00;98229.22;18567406;32;19960;-58
2023/05/17 21:53:59;;;;;;;;;;;;;;;7.53;100.00;98214.31;18566736;32;20020;-57
2023/05/17 22:04:02;;;;;;;;;;;;;;;7.32;100.00;98213.03;18552163;32;20341;-57
2023/05/17 22:14:06;;;;;;;;;;;;;;;7.26;100.00;98209.41;18565851;32;20371;-57
2023/05/17 22:24:10;;;;;;;;;;;;;;;7.24;100.00;98215.03;18565151;32;20333;-56
2023/05/17 22:34:14;;;;;;;;;;;;;;;7.22;100.00;98205.53;18563517;32;19992;-57
2023/05/17 22:44:17;;;;;;;;;;;;;;;7.13;100.00;98202.41;18563678;32;20008;-57
2023/05/17 22:54:22;;;;;;;;;;;;;;;7.11;100.00;98199.97;18549433;32;20325;-58
2023/05/17 23:04:24;;;;;;;;;;;;;;;7.11;100.00;98191.88;18562832;32;20367;-57
2023/05/17 23:14:28;;;;;;;;;;;;;;;7.11;100.00;98185.66;18562285;32;20005;-56
2023/05/17 23:24:30;;;;;;;;;;;;;;;7.04;100.00;98180.41;18547481;32;19959;-56
2023/05/17 23:34:32;;;;;;;;;;;;;;;6.91;100.00;98169.91;18561459;32;19986;-57
2023/05/17 23:44:36;;;;;;;;;;;;;;;6.72;100.00;98166.50;18562950;32;19979;-57
2023/05/17 23:54:42;;;;;;;;;;;;;;;6.58;100.00;98165.91;18574253;32;19993;-56
